createdAt,value
2018-03-06T00:01:01.128Z,961.34
2018-03-06T00:02:01.039Z,961.35
2018-03-06T00:03:54.282Z,961.34
2018-03-06T00:04:54.203Z,961.30
2018-03-06T00:06:47.489Z,961.35
2018-03-06T00:07:47.399Z,961.28
2018-03-06T00:09:40.635Z,961.24
2018-03-06T00:10:40.564Z,961.27
2018-03-06T00:12:33.856Z,961.27
2018-03-06T00:13:33.766Z,961.31
2018-03-06T00:15:27.025Z,961.34
2018-03-06T00:16:26.925Z,961.28
2018-03-06T00:18:20.203Z,961.33
2018-03-06T00:19:20.104Z,961.25
2018-03-06T00:21:13.359Z,961.34
2018-03-06T00:22:13.298Z,961.29
2018-03-06T00:24:06.572Z,961.34
2018-03-06T00:25:06.485Z,961.28
2018-03-06T00:26:59.717Z,961.25
2018-03-06T00:27:59.652Z,961.26
2018-03-06T00:29:52.930Z,961.21
2018-03-06T00:30:52.825Z,961.23
2018-03-06T00:32:46.073Z,961.22
2018-03-06T00:33:46.007Z,961.21
2018-03-06T00:35:39.291Z,961.21
2018-03-06T00:36:39.199Z,961.21
2018-03-06T00:38:32.451Z,961.11
2018-03-06T00:39:32.378Z,961.14
2018-03-06T00:41:25.663Z,961.20
2018-03-06T00:42:25.597Z,961.14
2018-03-06T00:44:18.833Z,961.14
2018-03-06T00:45:18.774Z,961.13
2018-03-06T00:47:12.022Z,961.11
2018-03-06T00:48:11.945Z,961.11
2018-03-06T00:50:05.190Z,961.13
2018-03-06T00:51:05.122Z,961.22
2018-03-06T00:52:58.418Z,961.20
2018-03-06T00:53:58.288Z,961.19
2018-03-06T00:55:51.570Z,961.17
2018-03-06T00:56:51.474Z,961.20
2018-03-06T00:58:44.765Z,961.22
2018-03-06T00:59:44.672Z,961.20
2018-03-06T01:01:37.898Z,961.19
2018-03-06T01:02:37.828Z,961.15
2018-03-06T01:04:31.122Z,961.18
2018-03-06T01:05:31.031Z,961.20
2018-03-06T01:07:24.262Z,961.15
2018-03-06T01:08:24.219Z,961.16
2018-03-06T01:10:17.465Z,961.14
2018-03-06T01:11:17.372Z,961.17
2018-03-06T01:13:10.640Z,961.16
2018-03-06T01:14:10.572Z,961.17
2018-03-06T01:16:04.849Z,961.10
2018-03-06T01:17:04.737Z,961.10
2018-03-06T01:18:58.000Z,961.09
2018-03-06T01:19:57.943Z,961.09
2018-03-06T01:21:51.203Z,961.07
2018-03-06T01:22:51.100Z,960.99
2018-03-06T01:24:44.362Z,961.04
2018-03-06T01:25:44.270Z,961.03
2018-03-06T01:27:37.553Z,961.03
2018-03-06T01:28:37.455Z,961.07
2018-03-06T01:30:30.703Z,961.05
2018-03-06T01:31:30.651Z,961.00
2018-03-06T01:33:23.915Z,960.98
2018-03-06T01:34:23.816Z,960.96
2018-03-06T01:36:17.079Z,960.93
2018-03-06T01:37:16.992Z,960.95
2018-03-06T01:39:10.276Z,960.89
2018-03-06T01:40:10.176Z,960.92
2018-03-06T01:42:03.442Z,960.87
2018-03-06T01:43:03.361Z,960.88
2018-03-06T01:44:56.621Z,960.88
2018-03-06T01:45:56.540Z,960.84
2018-03-06T01:47:49.786Z,960.82
2018-03-06T01:48:49.710Z,960.82
2018-03-06T01:50:42.981Z,960.83
2018-03-06T01:51:42.888Z,960.81
2018-03-06T01:53:36.195Z,960.82
2018-03-06T01:54:36.074Z,960.78
2018-03-06T01:56:29.348Z,960.72
2018-03-06T01:57:29.256Z,960.77
2018-03-06T01:59:22.499Z,960.73
2018-03-06T02:00:22.442Z,960.74
2018-03-06T02:02:15.697Z,960.72
2018-03-06T02:03:15.607Z,960.75
2018-03-06T02:05:08.851Z,960.63
2018-03-06T02:06:08.801Z,960.60
2018-03-06T02:08:02.070Z,960.59
2018-03-06T02:09:01.955Z,960.59
2018-03-06T02:10:55.220Z,960.63
2018-03-06T02:11:55.159Z,960.62
2018-03-06T02:13:48.417Z,960.58
2018-03-06T02:14:48.316Z,960.54
2018-03-06T02:16:41.569Z,960.53
2018-03-06T02:17:41.491Z,960.58
2018-03-06T02:19:34.772Z,960.54
2018-03-06T02:20:34.675Z,960.49
2018-03-06T02:22:27.919Z,960.48
2018-03-06T02:23:27.866Z,960.50
2018-03-06T02:25:21.150Z,960.46
2018-03-06T02:26:21.029Z,960.45
2018-03-06T02:28:14.276Z,960.43
2018-03-06T02:29:14.206Z,960.44
2018-03-06T02:31:07.481Z,960.39
2018-03-06T02:32:07.394Z,960.42
2018-03-06T02:34:00.628Z,960.49
2018-03-06T02:35:00.571Z,960.47
2018-03-06T02:36:53.841Z,960.45
2018-03-06T02:37:53.744Z,960.46
2018-03-06T02:39:46.994Z,960.45
2018-03-06T02:40:46.921Z,960.45
2018-03-06T02:42:40.191Z,960.50
2018-03-06T02:43:40.093Z,960.46
2018-03-06T02:45:33.340Z,960.44
2018-03-06T02:46:33.271Z,960.48
2018-03-06T02:48:26.576Z,960.46
2018-03-06T02:49:26.449Z,960.43
2018-03-06T02:51:19.713Z,960.40
2018-03-06T02:52:19.644Z,960.37
2018-03-06T02:54:12.912Z,960.39
2018-03-06T02:55:12.811Z,960.35
2018-03-06T02:57:06.065Z,960.36
2018-03-06T02:58:05.993Z,960.36
2018-03-06T03:00:00.258Z,960.31
2018-03-06T03:01:00.166Z,960.34
2018-03-06T03:02:53.407Z,960.33
2018-03-06T03:03:53.337Z,960.38
2018-03-06T03:05:46.615Z,960.41
2018-03-06T03:06:46.550Z,960.44
2018-03-06T03:08:39.765Z,960.40
2018-03-06T03:09:39.692Z,960.38
2018-03-06T03:11:32.969Z,960.37
2018-03-06T03:12:32.886Z,960.35
2018-03-06T03:14:26.116Z,960.29
2018-03-06T03:15:26.062Z,960.24
2018-03-06T03:17:19.327Z,960.27
2018-03-06T03:18:19.226Z,960.25
2018-03-06T03:20:12.473Z,960.33
2018-03-06T03:21:12.404Z,960.37
2018-03-06T03:23:05.682Z,960.37
2018-03-06T03:24:05.590Z,960.34
2018-03-06T03:25:58.827Z,960.28
2018-03-06T03:26:58.757Z,960.28
2018-03-06T03:28:52.034Z,960.28
2018-03-06T03:29:51.938Z,960.31
2018-03-06T03:31:45.186Z,960.29
2018-03-06T03:32:45.117Z,960.31
2018-03-06T03:34:38.389Z,960.35
2018-03-06T03:35:38.290Z,960.34
2018-03-06T03:37:31.545Z,960.35
2018-03-06T03:38:31.467Z,960.36
2018-03-06T03:40:24.745Z,960.34
2018-03-06T03:41:24.645Z,960.36
2018-03-06T03:43:17.909Z,960.30
2018-03-06T03:44:17.826Z,960.36
2018-03-06T03:46:11.111Z,960.35
2018-03-06T03:47:11.006Z,960.34
2018-03-06T03:49:04.251Z,960.33
2018-03-06T03:50:04.178Z,960.38
2018-03-06T03:51:57.452Z,960.38
2018-03-06T03:52:57.355Z,960.33
2018-03-06T03:54:50.599Z,960.36
2018-03-06T03:55:50.534Z,960.36
2018-03-06T03:57:43.809Z,960.32
2018-03-06T03:58:43.707Z,960.39
2018-03-06T04:00:36.960Z,960.32
2018-03-06T04:01:36.883Z,960.32
2018-03-06T04:03:30.161Z,960.31
2018-03-06T04:04:30.071Z,960.31
2018-03-06T04:06:23.319Z,960.42
2018-03-06T04:07:23.259Z,960.36
2018-03-06T04:09:17.513Z,960.30
2018-03-06T04:10:17.422Z,960.34
2018-03-06T04:12:10.667Z,960.30
2018-03-06T04:13:10.596Z,960.37
2018-03-06T04:15:03.875Z,960.29
2018-03-06T04:16:03.776Z,960.28
2018-03-06T04:17:57.014Z,960.33
2018-03-06T04:18:56.948Z,960.25
2018-03-06T04:20:50.220Z,960.24
2018-03-06T04:21:50.137Z,960.23
2018-03-06T04:23:43.371Z,960.20
2018-03-06T04:24:43.296Z,960.22
2018-03-06T04:26:36.590Z,960.24
2018-03-06T04:27:36.471Z,960.27
2018-03-06T04:29:29.719Z,960.25
2018-03-06T04:30:29.650Z,960.25
2018-03-06T04:32:22.931Z,960.28
2018-03-06T04:33:22.825Z,960.26
2018-03-06T04:35:16.073Z,960.31
2018-03-06T04:36:16.006Z,960.24
2018-03-06T04:38:09.295Z,960.25
2018-03-06T04:39:09.180Z,960.26
2018-03-06T04:41:02.425Z,960.26
2018-03-06T04:42:02.359Z,960.31
2018-03-06T04:43:55.631Z,960.24
2018-03-06T04:44:55.533Z,960.25
2018-03-06T04:46:48.778Z,960.27
2018-03-06T04:47:48.707Z,960.18
2018-03-06T04:49:41.982Z,960.27
2018-03-06T04:50:41.885Z,960.25
2018-03-06T04:52:35.128Z,960.19
2018-03-06T04:53:35.072Z,960.23
2018-03-06T04:55:28.335Z,960.21
2018-03-06T04:56:28.233Z,960.22
2018-03-06T04:58:21.530Z,960.17
2018-03-06T04:59:21.411Z,960.18
2018-03-06T05:01:14.688Z,960.14
2018-03-06T05:02:14.587Z,960.08
2018-03-06T05:04:07.966Z,960.09
2018-03-06T05:05:07.761Z,960.12
2018-03-06T05:07:01.036Z,960.11
2018-03-06T05:08:00.936Z,960.10
2018-03-06T05:09:54.184Z,960.12
2018-03-06T05:10:54.114Z,960.13
2018-03-06T05:12:47.390Z,960.08
2018-03-06T05:13:47.291Z,960.11
2018-03-06T05:15:40.534Z,960.11
2018-03-06T05:16:40.466Z,960.05
2018-03-06T05:18:33.739Z,960.11
2018-03-06T05:19:33.645Z,960.07
2018-03-06T05:21:26.906Z,960.08
2018-03-06T05:22:26.816Z,960.10
2018-03-06T05:24:20.091Z,960.13
2018-03-06T05:25:19.991Z,960.09
2018-03-06T05:27:13.238Z,960.13
2018-03-06T05:28:13.166Z,960.14
2018-03-06T05:30:06.443Z,960.08
2018-03-06T05:31:06.344Z,960.09
2018-03-06T05:32:59.591Z,960.09
2018-03-06T05:33:59.519Z,960.13
2018-03-06T05:35:52.798Z,960.13
2018-03-06T05:36:52.695Z,960.09
2018-03-06T05:38:45.950Z,960.12
2018-03-06T05:39:45.867Z,960.13
2018-03-06T05:41:39.154Z,960.12
2018-03-06T05:42:39.044Z,960.11
2018-03-06T05:44:32.292Z,960.11
2018-03-06T05:45:32.220Z,960.11
2018-03-06T05:47:26.499Z,960.13
2018-03-06T05:48:26.397Z,960.09
2018-03-06T05:50:19.657Z,960.16
2018-03-06T05:51:19.580Z,960.13
2018-03-06T05:53:12.859Z,960.14
2018-03-06T05:54:12.758Z,960.20
2018-03-06T05:56:06.002Z,960.18
2018-03-06T05:57:05.932Z,960.13
2018-03-06T05:58:59.225Z,960.09
2018-03-06T05:59:59.109Z,960.20
2018-03-06T06:01:52.356Z,960.22
2018-03-06T06:02:52.287Z,960.27
2018-03-06T06:04:45.563Z,960.28
2018-03-06T06:05:45.462Z,960.24
2018-03-06T06:07:38.710Z,960.20
2018-03-06T06:08:38.662Z,960.17
2018-03-06T06:10:31.916Z,960.17
2018-03-06T06:11:31.815Z,960.13
2018-03-06T06:13:25.061Z,960.11
2018-03-06T06:14:24.992Z,960.13
2018-03-06T06:16:18.265Z,960.17
2018-03-06T06:17:18.172Z,960.19
2018-03-06T06:19:11.413Z,960.19
2018-03-06T06:20:11.345Z,960.20
2018-03-06T06:22:04.619Z,960.22
2018-03-06T06:23:04.520Z,960.24
2018-03-06T06:24:57.771Z,960.24
2018-03-06T06:25:57.699Z,960.31
2018-03-06T06:27:50.975Z,960.24
2018-03-06T06:28:50.876Z,960.24
2018-03-06T06:30:44.125Z,960.26
2018-03-06T06:31:44.052Z,960.23
2018-03-06T06:33:37.329Z,960.29
2018-03-06T06:34:37.235Z,960.30
2018-03-06T06:36:30.478Z,960.30
2018-03-06T06:37:30.411Z,960.24
2018-03-06T06:39:23.689Z,960.28
2018-03-06T06:40:23.588Z,960.24
2018-03-06T06:42:16.837Z,960.23
2018-03-06T06:43:16.767Z,960.22
2018-03-06T06:45:10.678Z,960.26
2018-03-06T06:46:09.945Z,960.21
2018-03-06T06:48:03.209Z,960.29
2018-03-06T06:49:03.123Z,960.25
2018-03-06T06:50:56.401Z,960.27
2018-03-06T06:51:56.314Z,960.33
2018-03-06T06:53:49.549Z,960.33
2018-03-06T06:54:49.481Z,960.27
2018-03-06T06:56:42.761Z,960.32
2018-03-06T06:57:42.661Z,960.33
2018-03-06T06:59:35.908Z,960.33
2018-03-06T07:00:35.847Z,960.36
2018-03-06T07:02:29.137Z,960.31
2018-03-06T07:03:29.039Z,960.35
2018-03-06T07:05:22.267Z,960.37
2018-03-06T07:06:22.208Z,960.41
2018-03-06T07:08:15.473Z,960.32
2018-03-06T07:09:15.376Z,960.31
2018-03-06T07:11:08.625Z,960.36
2018-03-06T07:12:08.561Z,960.39
2018-03-06T07:14:01.837Z,960.38
2018-03-06T07:15:01.744Z,960.38
2018-03-06T07:16:54.521Z,960.38
2018-03-06T07:17:54.437Z,960.41
2018-03-06T07:19:47.722Z,960.41
2018-03-06T07:20:47.624Z,960.34
2018-03-06T07:22:40.871Z,960.40
2018-03-06T07:23:40.813Z,960.40
2018-03-06T07:25:34.087Z,960.41
2018-03-06T07:26:34.047Z,960.40
2018-03-06T07:28:27.244Z,960.47
2018-03-06T07:29:27.177Z,960.42
2018-03-06T07:31:20.460Z,960.46
2018-03-06T07:32:20.371Z,960.48
2018-03-06T07:34:13.617Z,960.43
2018-03-06T07:35:13.550Z,960.44
2018-03-06T07:37:06.836Z,960.47
2018-03-06T07:38:06.775Z,960.47
2018-03-06T07:39:59.992Z,960.48
2018-03-06T07:40:59.930Z,960.46
2018-03-06T07:42:53.213Z,960.42
2018-03-06T07:43:53.118Z,960.45
2018-03-06T07:45:46.376Z,960.42
2018-03-06T07:46:46.312Z,960.44
2018-03-06T07:48:39.595Z,960.37
2018-03-06T07:49:39.504Z,960.42
2018-03-06T07:51:32.761Z,960.46
2018-03-06T07:52:32.696Z,960.48
2018-03-06T07:54:25.999Z,960.42
2018-03-06T07:55:25.888Z,960.41
2018-03-06T07:57:19.164Z,960.47
2018-03-06T07:58:19.086Z,960.46
2018-03-06T08:00:12.372Z,960.47
2018-03-06T08:01:12.277Z,960.44
2018-03-06T08:03:05.538Z,960.46
2018-03-06T08:04:05.487Z,960.44
2018-03-06T08:05:58.764Z,960.40
2018-03-06T08:06:58.671Z,960.45
2018-03-06T08:08:51.949Z,960.41
2018-03-06T08:09:51.872Z,960.41
2018-03-06T08:11:45.204Z,960.43
2018-03-06T08:12:45.065Z,960.35
2018-03-06T08:14:38.331Z,960.37
2018-03-06T08:15:38.266Z,960.32
2018-03-06T08:17:31.559Z,960.34
2018-03-06T08:18:31.462Z,960.38
2018-03-06T08:20:24.737Z,960.40
2018-03-06T08:21:24.662Z,960.39
2018-03-06T08:23:17.957Z,960.33
2018-03-06T08:24:17.888Z,960.35
2018-03-06T08:26:11.260Z,960.33
2018-03-06T08:27:11.139Z,960.34
2018-03-06T08:29:04.381Z,960.32
2018-03-06T08:30:04.275Z,960.28
2018-03-06T08:31:57.535Z,960.29
2018-03-06T08:33:05.096Z,960.33
2018-03-06T08:34:50.765Z,960.29
2018-03-06T08:35:58.303Z,960.31
2018-03-06T08:37:43.972Z,960.31
2018-03-06T08:38:43.903Z,960.29
2018-03-06T08:40:37.180Z,960.33
2018-03-06T08:41:37.086Z,960.33
2018-03-06T08:43:30.351Z,960.34
2018-03-06T08:44:30.291Z,960.29
2018-03-06T08:46:23.582Z,960.20
2018-03-06T08:47:23.501Z,960.23
2018-03-06T08:49:16.761Z,960.23
2018-03-06T08:50:16.701Z,960.22
2018-03-06T08:52:10.011Z,960.22
2018-03-06T08:53:09.908Z,960.22
2018-03-06T08:55:03.173Z,960.21
2018-03-06T08:56:03.114Z,960.18
2018-03-06T08:57:56.415Z,960.21
2018-03-06T08:58:56.327Z,960.21
2018-03-06T09:00:49.591Z,960.21
2018-03-06T09:01:49.533Z,960.24
2018-03-06T09:03:42.848Z,960.24
2018-03-06T09:04:42.740Z,960.26
2018-03-06T09:06:36.133Z,960.26
2018-03-06T09:07:35.950Z,960.24
2018-03-06T09:09:29.260Z,960.22
2018-03-06T09:10:29.154Z,960.20
2018-03-06T09:12:22.418Z,960.20
2018-03-06T09:13:22.360Z,960.23
2018-03-06T09:15:15.656Z,960.22
2018-03-06T09:16:15.572Z,960.20
2018-03-06T09:18:08.833Z,960.25
2018-03-06T09:19:08.774Z,960.25
2018-03-06T09:21:02.071Z,960.23
2018-03-06T09:22:01.983Z,960.27
2018-03-06T09:23:55.247Z,960.22
2018-03-06T09:24:55.190Z,960.25
2018-03-06T09:26:48.486Z,960.23
2018-03-06T09:27:48.398Z,960.20
2018-03-06T09:29:41.666Z,960.23
2018-03-06T09:30:41.611Z,960.27
2018-03-06T09:32:34.911Z,960.25
2018-03-06T09:33:34.820Z,960.26
2018-03-06T09:35:28.089Z,960.27
2018-03-06T09:36:28.031Z,960.29
2018-03-06T09:38:21.346Z,960.29
2018-03-06T09:39:21.243Z,960.28
2018-03-06T09:41:14.513Z,960.22
2018-03-06T09:42:14.455Z,960.25
2018-03-06T09:44:07.751Z,960.21
2018-03-06T09:45:07.667Z,960.23
2018-03-06T09:47:00.936Z,960.21
2018-03-06T09:48:00.877Z,960.24
2018-03-06T09:49:54.176Z,960.21
2018-03-06T09:50:54.088Z,960.24
2018-03-06T09:52:47.358Z,960.16
2018-03-06T09:53:47.307Z,960.17
2018-03-06T09:55:40.622Z,960.16
2018-03-06T09:56:40.511Z,960.16
2018-03-06T09:58:33.779Z,960.20
2018-03-06T09:59:33.723Z,960.10
2018-03-06T10:01:27.021Z,960.14
2018-03-06T10:02:26.933Z,960.14
2018-03-06T10:04:20.202Z,960.08
2018-03-06T10:05:20.159Z,960.07
2018-03-06T10:07:13.441Z,960.11
2018-03-06T10:08:13.354Z,960.09
2018-03-06T10:10:06.620Z,960.14
2018-03-06T10:11:06.561Z,960.15
2018-03-06T10:12:59.880Z,960.14
2018-03-06T10:13:59.774Z,960.14
2018-03-06T10:15:53.044Z,960.15
2018-03-06T10:16:52.994Z,960.17
2018-03-06T10:18:46.293Z,960.14
2018-03-06T10:19:46.197Z,960.15
2018-03-06T10:21:39.470Z,960.16
2018-03-06T10:22:39.409Z,960.14
2018-03-06T10:24:32.722Z,960.15
2018-03-06T10:25:32.618Z,960.11
2018-03-06T10:27:25.892Z,960.09
2018-03-06T10:28:25.830Z,960.03
2018-03-06T10:30:19.143Z,960.09
2018-03-06T10:31:19.047Z,960.03
2018-03-06T10:33:12.315Z,960.09
2018-03-06T10:34:12.257Z,960.04
2018-03-06T10:36:05.685Z,960.04
2018-03-06T10:37:13.080Z,960.05
2018-03-06T10:38:58.735Z,960.03
2018-03-06T10:39:58.678Z,960.03
2018-03-06T10:41:51.980Z,960.01
2018-03-06T10:42:51.888Z,960.02
2018-03-06T10:44:45.157Z,959.95
2018-03-06T10:45:45.099Z,959.95
2018-03-06T10:47:38.397Z,959.96
2018-03-06T10:48:38.311Z,959.99
2018-03-06T10:50:31.577Z,959.99
2018-03-06T10:51:31.520Z,960.00
2018-03-06T10:53:24.818Z,959.95
2018-03-06T10:54:24.733Z,959.98
2018-03-06T10:56:18.002Z,959.99
2018-03-06T10:57:17.947Z,960.00
2018-03-06T10:59:11.243Z,960.00
2018-03-06T11:00:11.157Z,959.99
2018-03-06T11:02:04.426Z,959.94
2018-03-06T11:03:04.368Z,959.96
2018-03-06T11:04:57.667Z,959.96
2018-03-06T11:05:57.580Z,959.95
2018-03-06T11:07:50.850Z,960.00
2018-03-06T11:08:50.799Z,959.95
2018-03-06T11:10:44.111Z,960.00
2018-03-06T11:11:44.007Z,959.97
2018-03-06T11:13:37.283Z,960.02
2018-03-06T11:14:37.221Z,960.02
2018-03-06T11:16:30.521Z,959.97
2018-03-06T11:17:30.435Z,959.93
2018-03-06T11:19:23.708Z,960.01
2018-03-06T11:20:23.653Z,960.01
2018-03-06T11:22:16.969Z,959.97
2018-03-06T11:23:16.876Z,959.93
2018-03-06T11:25:10.137Z,959.94
2018-03-06T11:26:10.080Z,959.94
2018-03-06T11:28:03.387Z,959.92
2018-03-06T11:29:03.331Z,959.87
2018-03-06T11:30:56.565Z,959.87
2018-03-06T11:31:56.510Z,959.81
2018-03-06T11:33:49.809Z,959.81
2018-03-06T11:34:49.722Z,959.79
2018-03-06T11:36:42.990Z,959.85
2018-03-06T11:37:42.939Z,959.87
2018-03-06T11:39:36.537Z,959.82
2018-03-06T11:40:36.145Z,959.82
2018-03-06T11:42:29.414Z,959.74
2018-03-06T11:43:29.359Z,959.74
2018-03-06T11:45:22.661Z,959.74
2018-03-06T11:46:22.569Z,959.74
2018-03-06T11:48:15.836Z,959.73
2018-03-06T11:49:15.779Z,959.72
2018-03-06T11:51:09.080Z,959.74
2018-03-06T11:52:08.992Z,959.71
2018-03-06T11:54:02.265Z,959.70
2018-03-06T11:55:02.202Z,959.71
2018-03-06T11:56:55.501Z,959.68
2018-03-06T11:57:55.413Z,959.69
2018-03-06T11:59:48.681Z,959.70
2018-03-06T12:00:48.624Z,959.67
2018-03-06T12:02:41.937Z,959.64
2018-03-06T12:03:41.834Z,959.65
2018-03-06T12:05:35.116Z,959.67
2018-03-06T12:06:35.057Z,959.63
2018-03-06T12:08:28.420Z,959.58
2018-03-06T12:09:28.271Z,959.59
2018-03-06T12:11:21.541Z,959.54
2018-03-06T12:12:21.506Z,959.53
2018-03-06T12:14:14.803Z,959.53
2018-03-06T12:15:14.697Z,959.51
2018-03-06T12:17:07.967Z,959.48
2018-03-06T12:18:07.909Z,959.49
2018-03-06T12:20:01.212Z,959.48
2018-03-06T12:21:01.129Z,959.48
2018-03-06T12:22:54.395Z,959.46
2018-03-06T12:23:54.338Z,959.41
2018-03-06T12:25:47.636Z,959.43
2018-03-06T12:26:47.548Z,959.50
2018-03-06T12:28:40.822Z,959.49
2018-03-06T12:29:40.767Z,959.51
2018-03-06T12:31:34.061Z,959.49
2018-03-06T12:32:33.975Z,959.45
2018-03-06T12:34:27.246Z,959.48
2018-03-06T12:35:27.189Z,959.47
2018-03-06T12:37:20.487Z,959.44
2018-03-06T12:38:20.404Z,959.43
2018-03-06T12:40:13.673Z,959.40
2018-03-06T12:41:13.613Z,959.39
2018-03-06T12:43:06.932Z,959.38
2018-03-06T12:44:06.829Z,959.40
2018-03-06T12:46:00.102Z,959.43
2018-03-06T12:47:00.045Z,959.40
2018-03-06T12:48:53.344Z,959.46
2018-03-06T12:49:53.257Z,959.40
2018-03-06T12:51:46.526Z,959.42
2018-03-06T12:52:46.470Z,959.41
2018-03-06T12:54:39.794Z,959.35
2018-03-06T12:55:39.682Z,959.39
2018-03-06T12:57:32.953Z,959.34
2018-03-06T12:58:32.898Z,959.35
2018-03-06T13:00:26.214Z,959.30
2018-03-06T13:01:26.107Z,959.35
2018-03-06T13:03:19.378Z,959.35
2018-03-06T13:04:19.319Z,959.33
2018-03-06T13:06:12.619Z,959.28
2018-03-06T13:07:12.576Z,959.31
2018-03-06T13:09:05.808Z,959.27
2018-03-06T13:10:05.743Z,959.20
2018-03-06T13:11:59.042Z,959.24
2018-03-06T13:12:58.956Z,959.26
2018-03-06T13:14:52.225Z,959.23
2018-03-06T13:15:52.169Z,959.21
2018-03-06T13:17:45.468Z,959.22
2018-03-06T13:18:45.378Z,959.17
2018-03-06T13:20:38.646Z,959.22
2018-03-06T13:21:38.590Z,959.23
2018-03-06T13:23:31.889Z,959.20
2018-03-06T13:24:31.800Z,959.18
2018-03-06T13:26:25.068Z,959.13
2018-03-06T13:27:25.011Z,959.12
2018-03-06T13:29:18.309Z,959.15
2018-03-06T13:30:18.239Z,959.13
2018-03-06T13:32:11.487Z,959.11
2018-03-06T13:33:11.427Z,959.13
2018-03-06T13:35:04.743Z,959.14
2018-03-06T13:36:04.640Z,959.12
2018-03-06T13:37:57.907Z,959.08
2018-03-06T13:38:57.849Z,959.11
2018-03-06T13:40:51.147Z,959.12
2018-03-06T13:41:51.060Z,959.12
2018-03-06T13:43:44.337Z,959.11
2018-03-06T13:44:44.272Z,959.07
2018-03-06T13:46:37.584Z,959.13
2018-03-06T13:47:37.494Z,959.04
2018-03-06T13:49:30.766Z,959.11
2018-03-06T13:50:30.707Z,959.11
2018-03-06T13:52:24.006Z,959.18
2018-03-06T13:53:23.915Z,959.14
2018-03-06T13:55:17.185Z,959.17
2018-03-06T13:56:17.127Z,959.17
2018-03-06T13:58:10.426Z,959.14
2018-03-06T13:59:10.337Z,959.14
2018-03-06T14:01:03.606Z,959.14
2018-03-06T14:02:03.547Z,959.15
2018-03-06T14:03:56.863Z,959.16
2018-03-06T14:04:56.761Z,959.13
2018-03-06T14:06:50.026Z,959.16
2018-03-06T14:07:49.970Z,959.13
2018-03-06T14:09:43.268Z,959.17
2018-03-06T14:10:43.200Z,959.14
2018-03-06T14:12:36.447Z,959.07
2018-03-06T14:13:36.391Z,959.08
2018-03-06T14:15:29.766Z,959.16
2018-03-06T14:16:29.600Z,959.12
2018-03-06T14:18:22.875Z,959.13
2018-03-06T14:19:22.809Z,959.17
2018-03-06T14:21:16.130Z,959.14
2018-03-06T14:22:16.021Z,959.14
2018-03-06T14:24:09.288Z,959.14
2018-03-06T14:25:09.230Z,959.09
2018-03-06T14:27:02.528Z,959.15
2018-03-06T14:28:02.444Z,959.13
2018-03-06T14:29:55.718Z,959.13
2018-03-06T14:30:55.650Z,959.13
2018-03-06T14:32:48.950Z,959.11
2018-03-06T14:33:48.867Z,959.03
2018-03-06T14:35:42.131Z,959.07
2018-03-06T14:36:42.068Z,959.09
2018-03-06T14:38:35.363Z,959.09
2018-03-06T14:39:35.278Z,959.11
2018-03-06T14:41:28.539Z,959.12
2018-03-06T14:42:28.484Z,959.09
2018-03-06T14:44:21.907Z,959.07
2018-03-06T14:45:21.690Z,959.11
2018-03-06T14:47:14.956Z,959.13
2018-03-06T14:48:14.898Z,959.09
2018-03-06T14:50:08.196Z,959.09
2018-03-06T14:51:08.131Z,959.10
2018-03-06T14:53:01.370Z,959.10
2018-03-06T14:54:01.312Z,959.10
2018-03-06T14:55:54.608Z,959.14
2018-03-06T14:56:54.521Z,959.06
2018-03-06T14:58:47.786Z,959.10
2018-03-06T14:59:47.730Z,959.06
2018-03-06T15:01:41.024Z,959.10
2018-03-06T15:02:40.936Z,959.08
2018-03-06T15:04:34.204Z,959.05
2018-03-06T15:05:34.143Z,959.03
2018-03-06T15:07:27.459Z,959.03
2018-03-06T15:08:27.353Z,959.09
2018-03-06T15:10:20.617Z,959.12
2018-03-06T15:11:20.561Z,959.08
2018-03-06T15:13:13.852Z,959.12
2018-03-06T15:14:13.762Z,959.13
2018-03-06T15:16:07.029Z,959.15
2018-03-06T15:17:06.964Z,959.12
2018-03-06T15:19:00.276Z,959.09
2018-03-06T15:20:00.169Z,959.09
2018-03-06T15:21:53.433Z,959.14
2018-03-06T15:22:53.374Z,959.15
2018-03-06T15:24:46.666Z,959.12
2018-03-06T15:25:46.626Z,959.12
2018-03-06T15:27:39.840Z,959.16
2018-03-06T15:28:39.785Z,959.13
2018-03-06T15:30:33.077Z,959.17
2018-03-06T15:31:32.984Z,959.17
2018-03-06T15:33:26.247Z,959.14
2018-03-06T15:34:26.192Z,959.20
2018-03-06T15:36:19.485Z,959.18
2018-03-06T15:37:19.389Z,959.13
2018-03-06T15:39:12.656Z,959.22
2018-03-06T15:40:12.591Z,959.18
2018-03-06T15:42:05.892Z,959.23
2018-03-06T15:43:05.799Z,959.24
2018-03-06T15:44:59.063Z,959.17
2018-03-06T15:45:59.002Z,959.17
2018-03-06T15:47:52.309Z,959.20
2018-03-06T15:48:52.204Z,959.22
2018-03-06T15:50:45.465Z,959.25
2018-03-06T15:51:45.404Z,959.21
2018-03-06T15:53:38.705Z,959.26
2018-03-06T15:54:38.607Z,959.29
2018-03-06T15:56:31.873Z,959.31
2018-03-06T15:57:31.809Z,959.30
2018-03-06T15:59:25.113Z,959.34
2018-03-06T16:00:25.010Z,959.31
2018-03-06T16:02:18.272Z,959.35
2018-03-06T16:03:18.210Z,959.36
2018-03-06T16:05:11.508Z,959.41
2018-03-06T16:06:11.411Z,959.42
2018-03-06T16:08:04.671Z,959.41
2018-03-06T16:09:04.611Z,959.43
2018-03-06T16:10:57.904Z,959.47
2018-03-06T16:11:57.810Z,959.44
2018-03-06T16:13:51.080Z,959.48
2018-03-06T16:14:51.010Z,959.50
2018-03-06T16:16:44.303Z,959.54
2018-03-06T16:17:44.214Z,959.56
2018-03-06T16:19:37.491Z,959.50
2018-03-06T16:20:37.415Z,959.52
2018-03-06T16:22:30.723Z,959.52
2018-03-06T16:23:30.612Z,959.58
2018-03-06T16:25:23.874Z,959.65
2018-03-06T16:26:23.813Z,959.59
2018-03-06T16:28:17.104Z,959.62
2018-03-06T16:29:17.011Z,959.62
2018-03-06T16:31:10.272Z,959.63
2018-03-06T16:32:10.211Z,959.65
2018-03-06T16:34:03.501Z,959.62
2018-03-06T16:35:03.414Z,959.62
2018-03-06T16:36:56.669Z,959.60
2018-03-06T16:37:56.608Z,959.60
2018-03-06T16:39:49.906Z,959.67
2018-03-06T16:40:49.808Z,959.69
2018-03-06T16:42:43.068Z,959.75
2018-03-06T16:43:43.004Z,959.72
2018-03-06T16:45:36.308Z,959.74
2018-03-06T16:46:36.203Z,959.79
2018-03-06T16:48:29.465Z,959.75
2018-03-06T16:49:29.397Z,959.78
2018-03-06T16:51:22.691Z,959.81
2018-03-06T16:52:22.603Z,959.82
2018-03-06T16:54:15.854Z,959.84
2018-03-06T16:55:15.791Z,959.86
2018-03-06T16:57:09.081Z,959.88
2018-03-06T16:58:08.990Z,959.95
2018-03-06T17:00:02.250Z,959.98
2018-03-06T17:01:02.183Z,959.98
2018-03-06T17:02:55.471Z,959.98
2018-03-06T17:03:55.378Z,959.97
2018-03-06T17:05:48.634Z,960.01
2018-03-06T17:06:48.573Z,960.00
2018-03-06T17:08:41.865Z,960.03
2018-03-06T17:09:41.768Z,960.01
2018-03-06T17:11:35.031Z,960.06
2018-03-06T17:12:34.964Z,960.05
2018-03-06T17:14:28.253Z,960.06
2018-03-06T17:15:28.157Z,960.06
2018-03-06T17:17:21.418Z,960.07
2018-03-06T17:18:21.350Z,960.08
2018-03-06T17:20:14.637Z,960.07
2018-03-06T17:21:14.543Z,960.09
2018-03-06T17:23:07.803Z,960.08
2018-03-06T17:24:07.739Z,960.06
2018-03-06T17:26:01.035Z,960.10
2018-03-06T17:27:00.931Z,960.13
2018-03-06T17:28:54.193Z,960.11
2018-03-06T17:29:54.126Z,960.13
2018-03-06T17:31:47.412Z,960.16
2018-03-06T17:32:47.318Z,960.15
2018-03-06T17:34:40.574Z,960.19
2018-03-06T17:35:40.513Z,960.27
2018-03-06T17:37:33.798Z,960.27
2018-03-06T17:38:33.704Z,960.30
2018-03-06T17:40:26.978Z,960.28
2018-03-06T17:41:26.899Z,960.29
2018-03-06T17:43:20.195Z,960.35
2018-03-06T17:44:20.089Z,960.35
2018-03-06T17:46:13.348Z,960.32
2018-03-06T17:47:13.286Z,960.34
2018-03-06T17:49:06.570Z,960.43
2018-03-06T17:50:06.475Z,960.45
2018-03-06T17:51:59.733Z,960.42
2018-03-06T17:52:59.669Z,960.43
2018-03-06T17:54:52.956Z,960.43
2018-03-06T17:55:52.863Z,960.47
2018-03-06T17:57:46.118Z,960.44
2018-03-06T17:58:46.055Z,960.44
2018-03-06T18:00:39.341Z,960.49